sensor_id;sensor_type;location;lat;lon;timestamp;pressure;altitude;pressure_sealevel;temperature;humidity
21129;BME280;10722;51.910;8.352;2022-10-30T00:02:38;101018.16;;;14.33;100.00
21129;BME280;10722;51.910;8.352;2022-10-30T00:05:24;101013.84;;;14.40;100.00
21129;BME280;10722;51.910;8.352;2022-10-30T00:08:11;101008.66;;;14.43;100.00
21129;BME280;10722;51.910;8.352;2022-10-30T00:11:04;101011.41;;;14.59;100.00
21129;BME280;10722;51.910;8.352;2022-10-30T00:13:49;101021.59;;;14.31;100.00
21129;BME280;10722;51.910;8.352;2022-10-30T00:16:34;101012.06;;;14.34;100.00
21129;BME280;10722;51.910;8.352;2022-10-30T00:19:19;101005.13;;;14.35;100.00
21129;BME280;10722;51.910;8.352;2022-10-30T00:22:04;101005.25;;;14.52;100.00
21129;BME280;10722;51.910;8.352;2022-10-30T00:24:48;101006.06;;;14.45;100.00
21129;BME280;10722;51.910;8.352;2022-10-30T00:27:33;101008.72;;;14.51;100.00
21129;BME280;10722;51.910;8.352;2022-10-30T00:30:19;100998.38;;;14.63;100.00
21129;BME280;10722;51.910;8.352;2022-10-30T00:33:04;100990.59;;;14.65;100.00
21129;BME280;10722;51.910;8.352;2022-10-30T00:35:49;100987.13;;;14.67;100.00
21129;BME280;10722;51.910;8.352;2022-10-30T00:38:34;100988.00;;;14.68;100.00
21129;BME280;10722;51.910;8.352;2022-10-30T00:41:22;100994.09;;;14.74;100.00
21129;BME280;10722;51.910;8.352;2022-10-30T00:44:31;100998.28;;;14.51;100.00
21129;BME280;10722;51.910;8.352;2022-10-30T00:47:22;101000.94;;;14.55;100.00
21129;BME280;10722;51.910;8.352;2022-10-30T00:53:10;100987.22;;;14.81;100.00
21129;BME280;10722;51.910;8.352;2022-10-30T00:55:58;100975.94;;;14.87;100.00
21129;BME280;10722;51.910;8.352;2022-10-30T00:58:49;100986.28;;;14.73;100.00
21129;BME280;10722;51.910;8.352;2022-10-30T01:01:38;100996.69;;;14.71;100.00
21129;BME280;10722;51.910;8.352;2022-10-30T01:04:25;100983.72;;;14.85;100.00
21129;BME280;10722;51.910;8.352;2022-10-30T01:07:15;100973.34;;;14.87;100.00
21129;BME280;10722;51.910;8.352;2022-10-30T01:10:01;100970.75;;;14.90;100.00
21129;BME280;10722;51.910;8.352;2022-10-30T01:12:47;100979.34;;;14.70;100.00
21129;BME280;10722;51.910;8.352;2022-10-30T01:15:37;100986.94;;;14.41;100.00
21129;BME280;10722;51.910;8.352;2022-10-30T01:21:35;101004.09;;;14.08;100.00
21129;BME280;10722;51.910;8.352;2022-10-30T01:27:29;101014.56;;;14.21;100.00
21129;BME280;10722;51.910;8.352;2022-10-30T01:37:01;101013.75;;;14.26;100.00
21129;BME280;10722;51.910;8.352;2022-10-30T01:39:47;101008.59;;;14.34;100.00
21129;BME280;10722;51.910;8.352;2022-10-30T01:52:09;101005.19;;;14.43;100.00
21129;BME280;10722;51.910;8.352;2022-10-30T01:58:17;100996.53;;;14.50;100.00
21129;BME280;10722;51.910;8.352;2022-10-30T02:01:04;100988.69;;;14.42;100.00
21129;BME280;10722;51.910;8.352;2022-10-30T02:03:50;100994.78;;;14.46;100.00
21129;BME280;10722;51.910;8.352;2022-10-30T02:06:36;100982.53;;;14.29;100.00
21129;BME280;10722;51.910;8.352;2022-10-30T02:09:22;100986.91;;;14.30;100.00
21129;BME280;10722;51.910;8.352;2022-10-30T02:12:08;100986.84;;;14.24;100.00
21129;BME280;10722;51.910;8.352;2022-10-30T02:14:56;100986.09;;;14.42;100.00
21129;BME280;10722;51.910;8.352;2022-10-30T02:17:43;100983.47;;;14.36;100.00
21129;BME280;10722;51.910;8.352;2022-10-30T02:20:28;100981.72;;;14.33;100.00
21129;BME280;10722;51.910;8.352;2022-10-30T02:23:13;100979.88;;;14.22;100.00
21129;BME280;10722;51.910;8.352;2022-10-30T02:25:58;100987.63;;;14.16;100.00
21129;BME280;10722;51.910;8.352;2022-10-30T02:28:43;100989.31;;;14.06;100.00
21129;BME280;10722;51.910;8.352;2022-10-30T02:31:28;100997.19;;;14.13;100.00
21129;BME280;10722;51.910;8.352;2022-10-30T02:34:13;100994.59;;;14.15;100.00
21129;BME280;10722;51.910;8.352;2022-10-30T02:36:58;100982.44;;;14.11;100.00
21129;BME280;10722;51.910;8.352;2022-10-30T02:39:44;100991.84;;;13.98;100.00
21129;BME280;10722;51.910;8.352;2022-10-30T02:42:29;100982.44;;;14.11;100.00
21129;BME280;10722;51.910;8.352;2022-10-30T02:45:15;100987.66;;;14.19;100.00
21129;BME280;10722;51.910;8.352;2022-10-30T02:48:00;100980.69;;;14.11;100.00
21129;BME280;10722;51.910;8.352;2022-10-30T02:50:46;100983.28;;;14.11;100.00
21129;BME280;10722;51.910;8.352;2022-10-30T02:53:32;100974.63;;;14.11;100.00
21129;BME280;10722;51.910;8.352;2022-10-30T02:56:17;100983.22;;;14.01;100.00
21129;BME280;10722;51.910;8.352;2022-10-30T02:59:03;100997.00;;;13.92;100.00
21129;BME280;10722;51.910;8.352;2022-10-30T03:01:47;101007.31;;;13.81;100.00
21129;BME280;10722;51.910;8.352;2022-10-30T03:04:33;101002.28;;;14.01;100.00
21129;BME280;10722;51.910;8.352;2022-10-30T03:07:18;100996.16;;;13.92;100.00
21129;BME280;10722;51.910;8.352;2022-10-30T03:10:03;101017.72;;;13.81;100.00
21129;BME280;10722;51.910;8.352;2022-10-30T03:12:49;101008.34;;;13.97;100.00
21129;BME280;10722;51.910;8.352;2022-10-30T03:15:34;100991.91;;;14.03;100.00
21129;BME280;10722;51.910;8.352;2022-10-30T03:18:19;100995.22;;;13.86;100.00
21129;BME280;10722;51.910;8.352;2022-10-30T03:21:07;100994.31;;;13.80;100.00
21129;BME280;10722;51.910;8.352;2022-10-30T03:23:53;100985.63;;;13.79;100.00
21129;BME280;10722;51.910;8.352;2022-10-30T03:26:38;100987.19;;;13.59;100.00
21129;BME280;10722;51.910;8.352;2022-10-30T03:29:24;101000.22;;;13.65;100.00
21129;BME280;10722;51.910;8.352;2022-10-30T03:32:10;100998.44;;;13.59;100.00
21129;BME280;10722;51.910;8.352;2022-10-30T03:34:55;101011.41;;;13.52;100.00
21129;BME280;10722;51.910;8.352;2022-10-30T03:37:40;101015.03;;;13.72;100.00
21129;BME280;10722;51.910;8.352;2022-10-30T03:40:25;101015.72;;;13.54;100.00
21129;BME280;10722;51.910;8.352;2022-10-30T03:43:10;101013.84;;;13.38;100.00
21129;BME280;10722;51.910;8.352;2022-10-30T03:45:55;101016.50;;;13.45;100.00
21129;BME280;10722;51.910;8.352;2022-10-30T03:48:40;101011.50;;;13.65;100.00
21129;BME280;10722;51.910;8.352;2022-10-30T03:51:25;101002.78;;;13.59;100.00
21129;BME280;10722;51.910;8.352;2022-10-30T03:54:10;101005.38;;;13.57;100.00
21129;BME280;10722;51.910;8.352;2022-10-30T03:56:55;101010.69;;;13.71;100.00
21129;BME280;10722;51.910;8.352;2022-10-30T03:59:40;100996.09;;;13.85;100.00
21129;BME280;10722;51.910;8.352;2022-10-30T04:02:25;100997.63;;;13.65;100.00
21129;BME280;10722;51.910;8.352;2022-10-30T04:05:10;100995.06;;;13.66;100.00
21129;BME280;10722;51.910;8.352;2022-10-30T04:08:04;100982.97;;;13.72;100.00
21129;BME280;10722;51.910;8.352;2022-10-30T04:10:49;100987.28;;;13.71;100.00
21129;BME280;10722;51.910;8.352;2022-10-30T04:13:34;100985.69;;;13.85;100.00
21129;BME280;10722;51.910;8.352;2022-10-30T04:16:19;100980.41;;;13.79;100.00
21129;BME280;10722;51.910;8.352;2022-10-30T04:19:04;100965.75;;;13.87;100.00
21129;BME280;10722;51.910;8.352;2022-10-30T04:21:50;100986.41;;;13.67;100.00
21129;BME280;10722;51.910;8.352;2022-10-30T04:24:35;100991.63;;;13.71;100.00
21129;BME280;10722;51.910;8.352;2022-10-30T04:27:20;101000.22;;;13.63;100.00
21129;BME280;10722;51.910;8.352;2022-10-30T04:30:06;100975.25;;;13.82;100.00
21129;BME280;10722;51.910;8.352;2022-10-30T04:32:53;100971.63;;;13.65;100.00
21129;BME280;10722;51.910;8.352;2022-10-30T04:35:40;100982.03;;;13.63;100.00
21129;BME280;10722;51.910;8.352;2022-10-30T04:38:26;100982.09;;;13.71;100.00
21129;BME280;10722;51.910;8.352;2022-10-30T04:41:11;100976.88;;;13.71;100.00
21129;BME280;10722;51.910;8.352;2022-10-30T04:43:56;100991.47;;;13.54;100.00
21129;BME280;10722;51.910;8.352;2022-10-30T04:46:41;101002.50;;;13.31;100.00
21129;BME280;10722;51.910;8.352;2022-10-30T04:49:26;101000.91;;;13.44;100.00
21129;BME280;10722;51.910;8.352;2022-10-30T04:52:11;100998.44;;;13.55;100.00
21129;BME280;10722;51.910;8.352;2022-10-30T04:54:56;100995.72;;;13.45;100.00
21129;BME280;10722;51.910;8.352;2022-10-30T04:57:41;100991.31;;;13.40;100.00
21129;BME280;10722;51.910;8.352;2022-10-30T05:00:27;101006.81;;;13.29;100.00
21129;BME280;10722;51.910;8.352;2022-10-30T05:03:31;100988.44;;;13.17;100.00
21129;BME280;10722;51.910;8.352;2022-10-30T05:06:21;100984.00;;;13.05;100.00
21129;BME280;10722;51.910;8.352;2022-10-30T05:09:06;100990.22;;;13.18;100.00
21129;BME280;10722;51.910;8.352;2022-10-30T05:11:52;100990.88;;;13.03;100.00
21129;BME280;10722;51.910;8.352;2022-10-30T05:14:43;100986.75;;;13.19;100.00
21129;BME280;10722;51.910;8.352;2022-10-30T05:17:29;100996.25;;;13.15;100.00
21129;BME280;10722;51.910;8.352;2022-10-30T05:20:19;100997.00;;;13.07;100.00
21129;BME280;10722;51.910;8.352;2022-10-30T05:23:04;101006.16;;;12.75;100.00
21129;BME280;10722;51.910;8.352;2022-10-30T05:25:49;101018.94;;;12.62;100.00
21129;BME280;10722;51.910;8.352;2022-10-30T05:28:35;101013.59;;;12.51;100.00
21129;BME280;10722;51.910;8.352;2022-10-30T05:31:20;101021.31;;;12.46;100.00
21129;BME280;10722;51.910;8.352;2022-10-30T05:34:05;101018.94;;;12.62;100.00
21129;BME280;10722;51.910;8.352;2022-10-30T05:36:51;101014.50;;;12.53;100.00
21129;BME280;10722;51.910;8.352;2022-10-30T05:39:36;101021.31;;;12.46;100.00
21129;BME280;10722;51.910;8.352;2022-10-30T05:42:21;101017.72;;;12.37;100.00
21129;BME280;10722;51.910;8.352;2022-10-30T05:45:06;101014.91;;;12.23;100.00
21129;BME280;10722;51.910;8.352;2022-10-30T05:50:41;101017.41;;;12.17;100.00
21129;BME280;10722;51.910;8.352;2022-10-30T05:53:26;101024.22;;;12.10;100.00
21129;BME280;10722;51.910;8.352;2022-10-30T05:56:10;101028.47;;;12.06;100.00
21129;BME280;10722;51.910;8.352;2022-10-30T05:58:56;101033.63;;;12.03;100.00
21129;BME280;10722;51.910;8.352;2022-10-30T06:01:41;101038.16;;;12.17;100.00
21129;BME280;10722;51.910;8.352;2022-10-30T06:04:26;101037.84;;;11.97;100.00
21129;BME280;10722;51.910;8.352;2022-10-30T06:07:11;101056.00;;;11.98;100.00
21129;BME280;10722;51.910;8.352;2022-10-30T06:09:56;101051.13;;;12.17;100.00
21129;BME280;10722;51.910;8.352;2022-10-30T06:12:41;101041.53;;;12.11;100.00
21129;BME280;10722;51.910;8.352;2022-10-30T06:15:27;101027.66;;;12.09;100.00
21129;BME280;10722;51.910;8.352;2022-10-30T06:18:13;101026.97;;;12.21;100.00
21129;BME280;10722;51.910;8.352;2022-10-30T06:20:58;101030.75;;;11.86;100.00
21129;BME280;10722;51.910;8.352;2022-10-30T06:23:43;101037.66;;;11.87;100.00
21129;BME280;10722;51.910;8.352;2022-10-30T06:26:28;101053.31;;;11.94;100.00
21129;BME280;10722;51.910;8.352;2022-10-30T06:29:13;101040.59;;;11.59;100.00
21129;BME280;10722;51.910;8.352;2022-10-30T06:31:58;101049.91;;;11.49;100.00
21129;BME280;10722;51.910;8.352;2022-10-30T06:34:50;101060.28;;;11.51;100.00
21129;BME280;10722;51.910;8.352;2022-10-30T06:37:36;101062.13;;;11.56;100.00
21129;BME280;10722;51.910;8.352;2022-10-30T06:40:22;101064.97;;;11.69;100.00
21129;BME280;10722;51.910;8.352;2022-10-30T06:43:08;101061.34;;;11.60;100.00
21129;BME280;10722;51.910;8.352;2022-10-30T06:45:53;101061.47;;;11.68;100.00
21129;BME280;10722;51.910;8.352;2022-10-30T06:48:38;101067.56;;;11.69;100.00
21129;BME280;10722;51.910;8.352;2022-10-30T06:51:23;101060.19;;;11.90;100.00
21129;BME280;10722;51.910;8.352;2022-10-30T06:54:08;101050.41;;;11.77;100.00
21129;BME280;10722;51.910;8.352;2022-10-30T06:56:54;101047.03;;;11.82;100.00
21129;BME280;10722;51.910;8.352;2022-10-30T06:59:39;101047.16;;;11.85;100.00
21129;BME280;10722;51.910;8.352;2022-10-30T07:02:24;101052.59;;;12.01;100.00
21129;BME280;10722;51.910;8.352;2022-10-30T07:05:09;101042.44;;;12.15;100.00
21129;BME280;10722;51.910;8.352;2022-10-30T07:07:55;101037.16;;;12.08;100.00
21129;BME280;10722;51.910;8.352;2022-10-30T07:10:40;101039.72;;;12.07;100.00
21129;BME280;10722;51.910;8.352;2022-10-30T07:13:26;101032.28;;;12.28;100.00
21129;BME280;10722;51.910;8.352;2022-10-30T07:16:10;101031.16;;;12.11;100.00
21129;BME280;10722;51.910;8.352;2022-10-30T07:18:56;101037.38;;;12.22;100.00
21129;BME280;10722;51.910;8.352;2022-10-30T07:21:48;101033.19;;;12.32;100.00
21129;BME280;10722;51.910;8.352;2022-10-30T07:24:33;101035.97;;;12.44;100.00
21129;BME280;10722;51.910;8.352;2022-10-30T07:27:18;101031.59;;;12.40;100.00
21129;BME280;10722;51.910;8.352;2022-10-30T07:30:03;101041.03;;;12.35;100.00
21129;BME280;10722;51.910;8.352;2022-10-30T07:33:03;101043.72;;;12.40;100.00
21129;BME280;10722;51.910;8.352;2022-10-30T07:35:49;101047.25;;;12.45;100.00
21129;BME280;10722;51.910;8.352;2022-10-30T07:38:34;101048.25;;;12.54;100.00
21129;BME280;10722;51.910;8.352;2022-10-30T07:41:19;101048.47;;;12.70;100.00
21129;BME280;10722;51.910;8.352;2022-10-30T07:44:05;101053.78;;;12.81;100.00
21129;BME280;10722;51.910;8.352;2022-10-30T07:46:50;101053.19;;;12.98;100.00
21129;BME280;10722;51.910;8.352;2022-10-30T07:49:35;101048.94;;;13.04;100.00
21129;BME280;10722;51.910;8.352;2022-10-30T07:52:23;101038.72;;;13.19;100.00
21129;BME280;10722;51.910;8.352;2022-10-30T07:55:19;101041.50;;;13.33;100.00
21129;BME280;10722;51.910;8.352;2022-10-30T07:58:04;101032.06;;;13.41;100.00
21129;BME280;10722;51.910;8.352;2022-10-30T08:00:51;101024.50;;;13.64;100.00
21129;BME280;10722;51.910;8.352;2022-10-30T08:03:36;101028.88;;;13.71;100.00
21129;BME280;10722;51.910;8.352;2022-10-30T08:06:23;101018.56;;;13.79;100.00
21129;BME280;10722;51.910;8.352;2022-10-30T08:09:11;101008.31;;;13.96;100.00
21129;BME280;10722;51.910;8.352;2022-10-30T08:11:56;101003.19;;;14.06;100.00
21129;BME280;10722;51.910;8.352;2022-10-30T08:14:42;101005.84;;;14.12;100.00
21129;BME280;10722;51.910;8.352;2022-10-30T08:17:57;101015.47;;;14.24;99.90
21129;BME280;10722;51.910;8.352;2022-10-30T08:21:00;101008.59;;;14.34;98.85
21129;BME280;10722;51.910;8.352;2022-10-30T08:23:45;101006.88;;;14.38;97.61
21129;BME280;10722;51.910;8.352;2022-10-30T08:26:33;101014.75;;;14.50;97.69
21129;BME280;10722;51.910;8.352;2022-10-30T08:29:20;100999.28;;;14.68;96.38
21129;BME280;10722;51.910;8.352;2022-10-30T08:32:06;100988.88;;;14.74;94.82
21129;BME280;10722;51.910;8.352;2022-10-30T08:34:51;100991.59;;;14.90;94.60
21129;BME280;10722;51.910;8.352;2022-10-30T08:37:37;101000.28;;;14.93;93.79
21129;BME280;10722;51.910;8.352;2022-10-30T08:40:23;100983.78;;;15.00;93.50
21129;BME280;10722;51.910;8.352;2022-10-30T08:43:08;100987.34;;;15.21;93.59
21129;BME280;10722;51.910;8.352;2022-10-30T08:45:56;100983.88;;;15.33;92.95
21129;BME280;10722;51.910;8.352;2022-10-30T08:48:41;100963.06;;;15.57;91.40
21129;BME280;10722;51.910;8.352;2022-10-30T08:51:26;100964.81;;;15.63;90.72
21129;BME280;10722;51.910;8.352;2022-10-30T08:54:12;100961.31;;;15.67;90.19
21129;BME280;10722;51.910;8.352;2022-10-30T08:56:57;100962.22;;;15.74;89.78
21129;BME280;10722;51.910;8.352;2022-10-30T08:59:41;100945.69;;;15.87;89.40
21129;BME280;10722;51.910;8.352;2022-10-30T09:02:26;100937.84;;;16.01;88.78
21129;BME280;10722;51.910;8.352;2022-10-30T09:05:12;100923.91;;;16.19;86.86
21129;BME280;10722;51.910;8.352;2022-10-30T09:07:58;100914.31;;;16.31;86.21
21129;BME280;10722;51.910;8.352;2022-10-30T09:10:43;100914.28;;;16.42;85.55
21129;BME280;10722;51.910;8.352;2022-10-30T09:13:29;100899.44;;;16.50;84.41
21129;BME280;10722;51.910;8.352;2022-10-30T09:16:14;100895.88;;;16.73;83.69
21129;BME280;10722;51.910;8.352;2022-10-30T09:22:32;100878.41;;;16.86;82.31
21129;BME280;10722;51.910;8.352;2022-10-30T09:25:17;100887.03;;;17.01;82.28
21129;BME280;10722;51.910;8.352;2022-10-30T09:28:03;100869.50;;;17.14;80.94
21129;BME280;10722;51.910;8.352;2022-10-30T09:30:48;100865.06;;;17.24;80.46
21129;BME280;10722;51.910;8.352;2022-10-30T09:33:33;100876.28;;;17.38;80.46
21129;BME280;10722;51.910;8.352;2022-10-30T09:39:34;100845.72;;;17.45;79.17
21129;BME280;10722;51.910;8.352;2022-10-30T09:45:22;100853.34;;;17.69;79.18
21129;BME280;10722;51.910;8.352;2022-10-30T09:56:52;100849.53;;;18.03;77.72
21129;BME280;10722;51.910;8.352;2022-10-30T10:03:02;100862.38;;;18.24;77.85
21129;BME280;10722;51.910;8.352;2022-10-30T10:05:53;100873.53;;;18.42;77.84
21129;BME280;10722;51.910;8.352;2022-10-30T10:08:47;100869.81;;;18.58;77.01
21129;BME280;10722;51.910;8.352;2022-10-30T10:11:36;100849.59;;;18.66;75.83
21129;BME280;10722;51.910;8.352;2022-10-30T10:14:26;100835.38;;;18.86;74.49
21129;BME280;10722;51.910;8.352;2022-10-30T10:17:19;100830.13;;;18.87;74.19
21129;BME280;10722;51.910;8.352;2022-10-30T10:20:15;100823.78;;;19.02;73.73
21129;BME280;10722;51.910;8.352;2022-10-30T10:23:05;100829.72;;;19.13;73.82
21129;BME280;10722;51.910;8.352;2022-10-30T10:25:57;100825.06;;;19.31;72.98
21129;BME280;10722;51.910;8.352;2022-10-30T10:28:55;100815.25;;;19.43;71.82
21129;BME280;10722;51.910;8.352;2022-10-30T10:51:21;100847.59;;;19.44;73.39
21129;BME280;10722;51.910;8.352;2022-10-30T10:54:35;100834.25;;;19.56;72.70
21129;BME280;10722;51.910;8.352;2022-10-30T10:57:40;100841.88;;;19.72;72.45
21129;BME280;10722;51.910;8.352;2022-10-30T11:00:28;100817.81;;;19.93;71.78
21129;BME280;10722;51.910;8.352;2022-10-30T11:03:16;100789.28;;;20.20;70.35
21129;BME280;10722;51.910;8.352;2022-10-30T11:06:17;100795.66;;;20.48;69.62
21129;BME280;10722;51.910;8.352;2022-10-30T11:09:32;100773.88;;;20.45;69.16
21129;BME280;10722;51.910;8.352;2022-10-30T11:12:33;100772.44;;;20.70;68.86
21129;BME280;10722;51.910;8.352;2022-10-30T11:18:13;100726.34;;;20.55;67.27
21129;BME280;10722;51.910;8.352;2022-10-30T11:21:06;100759.66;;;20.52;68.54
21129;BME280;10722;51.910;8.352;2022-10-30T11:23:53;100773.13;;;20.77;68.82
21129;BME280;10722;51.910;8.352;2022-10-30T11:26:39;100763.03;;;20.96;68.33
21129;BME280;10722;51.910;8.352;2022-10-30T11:29:26;100727.91;;;20.98;66.92
21129;BME280;10722;51.910;8.352;2022-10-30T11:32:17;100726.25;;;20.94;66.59
21129;BME280;10722;51.910;8.352;2022-10-30T11:38:10;100729.53;;;21.04;66.09
21129;BME280;10722;51.910;8.352;2022-10-30T11:40:56;100740.41;;;21.23;66.16
21129;BME280;10722;51.910;8.352;2022-10-30T11:43:42;100707.25;;;21.17;64.54
21129;BME280;10722;51.910;8.352;2022-10-30T11:46:28;100716.44;;;21.34;64.57
21129;BME280;10722;51.910;8.352;2022-10-30T11:49:34;100676.72;;;21.44;62.89
21129;BME280;10722;51.910;8.352;2022-10-30T11:52:22;100685.28;;;21.51;62.99
21129;BME280;10722;51.910;8.352;2022-10-30T11:55:33;100668.78;;;21.46;61.96
21129;BME280;10722;51.910;8.352;2022-10-30T12:01:23;100692.50;;;21.44;62.86
21129;BME280;10722;51.910;8.352;2022-10-30T12:04:35;100711.69;;;21.49;63.32
21129;BME280;10722;51.910;8.352;2022-10-30T12:07:37;100715.06;;;21.55;63.75
21129;BME280;10722;51.910;8.352;2022-10-30T12:10:29;100700.69;;;21.65;63.12
21129;BME280;10722;51.910;8.352;2022-10-30T12:13:16;100709.50;;;21.64;63.74
21129;BME280;10722;51.910;8.352;2022-10-30T12:19:10;100739.75;;;22.10;64.31
21129;BME280;10722;51.910;8.352;2022-10-30T12:21:57;100699.34;;;22.67;62.08
21129;BME280;10722;51.910;8.352;2022-10-30T12:24:43;100682.94;;;22.59;61.12
21129;BME280;10722;51.910;8.352;2022-10-30T12:27:29;100701.22;;;22.64;61.67
21129;BME280;10722;51.910;8.352;2022-10-30T12:30:16;100686.97;;;22.69;61.49
21129;BME280;10722;51.910;8.352;2022-10-30T12:36:46;100687.63;;;23.27;60.04
21129;BME280;10722;51.910;8.352;2022-10-30T12:42:49;100647.03;;;23.55;57.97
21129;BME280;10722;51.910;8.352;2022-10-30T12:45:48;100693.72;;;23.30;60.08
21129;BME280;10722;51.910;8.352;2022-10-30T12:48:46;100692.50;;;22.88;60.73
21129;BME280;10722;51.910;8.352;2022-10-30T12:54:51;100713.84;;;22.54;62.30
21129;BME280;10722;51.910;8.352;2022-10-30T12:58:09;100711.06;;;22.58;62.21
21129;BME280;10722;51.910;8.352;2022-10-30T13:01:04;100722.38;;;22.62;62.75
21129;BME280;10722;51.910;8.352;2022-10-30T13:04:14;100705.34;;;22.99;61.23
21129;BME280;10722;51.910;8.352;2022-10-30T13:07:34;100713.38;;;22.94;62.30
21129;BME280;10722;51.910;8.352;2022-10-30T13:10:31;100693.38;;;23.39;60.58
21129;BME280;10722;51.910;8.352;2022-10-30T13:13:21;100679.50;;;23.82;59.55
21129;BME280;10722;51.910;8.352;2022-10-30T13:16:14;100701.44;;;23.59;60.59
21129;BME280;10722;51.910;8.352;2022-10-30T13:19:00;100671.19;;;23.68;59.84
21129;BME280;10722;51.910;8.352;2022-10-30T13:22:07;100664.16;;;23.68;59.60
21129;BME280;10722;51.910;8.352;2022-10-30T13:28:12;100664.06;;;23.46;59.47
21129;BME280;10722;51.910;8.352;2022-10-30T13:34:02;100684.47;;;23.43;60.42
21129;BME280;10722;51.910;8.352;2022-10-30T13:40:14;100681.19;;;23.60;60.30
21129;BME280;10722;51.910;8.352;2022-10-30T13:52:14;100719.97;;;22.54;63.98
21129;BME280;10722;51.910;8.352;2022-10-30T13:55:05;100711.50;;;22.45;63.55
21129;BME280;10722;51.910;8.352;2022-10-30T14:01:21;100745.44;;;22.27;66.04
21129;BME280;10722;51.910;8.352;2022-10-30T14:04:49;100697.19;;;22.25;63.90
21129;BME280;10722;51.910;8.352;2022-10-30T14:13:23;100710.56;;;22.19;64.52
21129;BME280;10722;51.910;8.352;2022-10-30T14:19:17;100703.66;;;22.13;64.01
21129;BME280;10722;51.910;8.352;2022-10-30T14:22:02;100690.63;;;21.79;64.06
21129;BME280;10722;51.910;8.352;2022-10-30T14:24:48;100715.81;;;21.58;65.18
21129;BME280;10722;51.910;8.352;2022-10-30T14:27:33;100733.22;;;21.62;66.48
21129;BME280;10722;51.910;8.352;2022-10-30T14:30:19;100705.00;;;21.67;64.80
21129;BME280;10722;51.910;8.352;2022-10-30T14:33:04;100711.78;;;21.76;65.00
21129;BME280;10722;51.910;8.352;2022-10-30T14:38:59;100722.84;;;21.58;66.03
21129;BME280;10722;51.910;8.352;2022-10-30T14:41:59;100711.56;;;21.54;65.82
21129;BME280;10722;51.910;8.352;2022-10-30T14:45:13;100804.63;;;21.52;71.88
21129;BME280;10722;51.910;8.352;2022-10-30T14:51:29;100755.69;;;21.44;69.62
21129;BME280;10722;51.910;8.352;2022-10-30T14:57:42;100809.25;;;21.06;73.18
21129;BME280;10722;51.910;8.352;2022-10-30T15:03:30;100807.84;;;20.93;74.03
21129;BME280;10722;51.910;8.352;2022-10-30T15:06:48;100811.53;;;20.84;74.97
21129;BME280;10722;51.910;8.352;2022-10-30T15:09:50;100807.44;;;20.72;75.29
21129;BME280;10722;51.910;8.352;2022-10-30T15:13:02;100819.91;;;20.63;75.89
21129;BME280;10722;51.910;8.352;2022-10-30T15:15:57;100848.22;;;20.48;78.34
21129;BME280;10722;51.910;8.352;2022-10-30T15:18:45;100864.09;;;20.00;81.13
21129;BME280;10722;51.910;8.352;2022-10-30T15:21:34;100866.19;;;19.81;82.03
21129;BME280;10722;51.910;8.352;2022-10-30T15:24:25;100872.78;;;19.53;84.05
21129;BME280;10722;51.910;8.352;2022-10-30T15:27:17;100858.94;;;19.44;83.47
21129;BME280;10722;51.910;8.352;2022-10-30T15:30:03;100844.91;;;19.45;82.60
21129;BME280;10722;51.910;8.352;2022-10-30T15:32:48;100853.22;;;19.21;84.29
21129;BME280;10722;51.910;8.352;2022-10-30T15:35:34;100866.59;;;19.02;85.38
21129;BME280;10722;51.910;8.352;2022-10-30T15:38:19;100880.75;;;18.89;87.41
21129;BME280;10722;51.910;8.352;2022-10-30T15:41:04;100866.19;;;18.68;87.65
21129;BME280;10722;51.910;8.352;2022-10-30T15:43:49;100870.66;;;18.62;88.15
21129;BME280;10722;51.910;8.352;2022-10-30T15:46:34;100861.81;;;18.69;86.88
21129;BME280;10722;51.910;8.352;2022-10-30T15:49:35;100849.56;;;18.69;86.08
21129;BME280;10722;51.910;8.352;2022-10-30T15:52:28;100853.09;;;18.70;86.40
21129;BME280;10722;51.910;8.352;2022-10-30T15:55:19;100831.88;;;18.88;84.90
21129;BME280;10722;51.910;8.352;2022-10-30T15:58:06;100844.50;;;18.58;85.70
21129;BME280;10722;51.910;8.352;2022-10-30T16:00:59;100838.34;;;18.59;84.99
21129;BME280;10722;51.910;8.352;2022-10-30T16:03:51;100853.19;;;18.60;85.00
21129;BME280;10722;51.910;8.352;2022-10-30T16:06:36;100854.47;;;18.30;85.96
21129;BME280;10722;51.910;8.352;2022-10-30T16:09:22;100858.94;;;18.21;86.67
21129;BME280;10722;51.910;8.352;2022-10-30T16:12:08;100872.41;;;17.85;88.41
21129;BME280;10722;51.910;8.352;2022-10-30T16:15:00;100874.03;;;17.96;89.18
21129;BME280;10722;51.910;8.352;2022-10-30T16:17:46;100875.91;;;17.86;88.72
21129;BME280;10722;51.910;8.352;2022-10-30T16:20:32;100870.72;;;17.75;89.01
21129;BME280;10722;51.910;8.352;2022-10-30T16:23:19;100858.69;;;17.56;88.72
21129;BME280;10722;51.910;8.352;2022-10-30T16:26:04;100883.28;;;17.38;90.37
21129;BME280;10722;51.910;8.352;2022-10-30T16:28:50;100874.38;;;17.60;90.01
21129;BME280;10722;51.910;8.352;2022-10-30T16:31:35;100892.03;;;17.31;91.36
21129;BME280;10722;51.910;8.352;2022-10-30T16:34:27;100893.78;;;17.30;92.25
21129;BME280;10722;51.910;8.352;2022-10-30T16:37:19;100896.41;;;17.30;92.75
21129;BME280;10722;51.910;8.352;2022-10-30T16:40:13;100896.47;;;17.21;93.06
21129;BME280;10722;51.910;8.352;2022-10-30T16:43:00;100896.53;;;17.10;93.46
21129;BME280;10722;51.910;8.352;2022-10-30T16:45:47;100904.56;;;16.79;94.94
21129;BME280;10722;51.910;8.352;2022-10-30T16:48:34;100902.00;;;16.58;94.53
21129;BME280;10722;51.910;8.352;2022-10-30T16:51:19;100906.41;;;16.51;94.56
21129;BME280;10722;51.910;8.352;2022-10-30T16:54:05;100906.44;;;16.45;94.74
21129;BME280;10722;51.910;8.352;2022-10-30T16:56:53;100917.75;;;16.35;95.35